Latest Weather Observations for Kuitpo

IDS60901

Issued at 3:15 am CST Wednesday 1 October 2014 (issued every 10 minutes, with the page automatically refreshed every 10 minutes)

About weather observations | Map of Adelaide area stations | Latest observations for Adelaide area | Other Formats
Station Details ID: 023887 Name: KUITPO FOREST RESERVE Lat: -35.17 Lon: 138.68 Height: 365.0 m
Data from the previous 72 hours. | See also: Recent months at Kuitpo
Date/Time
CST
Tmp

°C
App
Tmp
°C
Dew
Point
°C
Rel
Hum
%
Delta-T

°C
Wind Press
QNH
hPa
Press
MSL
hPa
Rain
since
9 am
mm
Dir
 
Spd
km/h
Gust
km/h
Spd
kts
Gust
kts
01/03:00am 7.8 4.6 5.3 84 1.1 SW 11 17 6 9 1022.1 1022.0 0.2
01/02:30am 7.5 3.9 5.1 85 1.1 SW 13 19 7 10 1021.8 1021.8 0.2
01/02:00am 7.9 4.4 5.5 85 1.1 SW 13 20 7 11 1021.8 1021.8 0.2
01/01:30am 7.9 4.3 5.2 83 1.2 SW 13 24 7 13 1021.7 1021.7 0.2
01/01:00am 8.1 4.2 5.4 83 1.2 SW 15 20 8 11 1021.6 1021.6 0.2
01/12:30am 8.3 4.0 5.2 81 1.4 SW 17 26 9 14 1021.6 1021.6 0.2
01/12:00am 8.0 4.2 6.0 87 0.9 SSW 15 24 8 13 1021.5 1021.5 0.2
 
Date/Time
CST
Tmp

°C
App
Tmp
°C
Dew
Point
°C
Rel
Hum
%
Delta-T

°C
Wind Press
QNH
hPa
Press
MSL
hPa
Rain
since
9 am
mm
Dir
 
Spd
km/h
Gust
km/h
Spd
kts
Gust
kts
30/11:30pm 8.3 4.6 6.1 86 1.0 SW 15 24 8 13 1021.2 1021.1 0.2
30/11:00pm 8.3 4.6 6.3 87 0.9 SW 15 20 8 11 1021.0 1020.9 0.2
30/10:30pm 8.5 4.8 6.3 86 1.0 SW 15 24 8 13 1020.8 1020.7 0.2
30/10:00pm 8.6 4.4 5.9 83 1.3 SW 17 26 9 14 1020.5 1020.4 0.2
30/09:30pm 8.8 4.2 5.7 81 1.4 SW 19 32 10 17 1020.3 1020.2 0.2
30/09:00pm 9.1 4.6 6.0 81 1.4 WSW 19 33 10 18 1019.9 1019.8 0.2
30/08:30pm 9.8 4.9 6.7 81 1.5 SW 22 37 12 20 1019.7 1019.6 0.2
30/08:00pm 10.5 5.2 6.6 77 1.9 SW 24 43 13 23 1018.9 1018.8 0.2
30/07:30pm 10.5 6.4 7.9 84 1.3 WSW 19 26 10 14 1018.5 1018.4 0.2
30/07:00pm 10.8 6.1 7.9 82 1.4 WSW 22 44 12 24 1017.7 1017.6 0.2
30/06:30pm 10.9 5.1 7.8 81 1.5 WSW 28 44 15 24 1017.3 1017.2 0.2
30/06:13pm 11.2 4.5 7.5 78 1.8 WSW 32 54 17 29 1017.0 1016.9 0.2
30/06:00pm 11.6 5.7 7.7 77 1.9 WSW 28 41 15 22 1016.8 1016.7 0.2
30/05:30pm 11.6 5.6 7.1 74 2.2 WSW 28 48 15 26 1016.5 1016.3 0.2
30/05:01pm 12.7 5.8 7.2 69 2.7 WSW 33 56 18 30 1015.8 1015.7 0.2
30/05:00pm 12.7 5.9 7.0 68 2.8 WSW 32 48 17 26 1015.9 1015.8 0.2
30/04:30pm 13.0 5.6 6.8 66 3.0 W 35 54 19 29 1015.3 1015.2 0.2
30/04:28pm 13.1 5.8 7.3 68 2.9 WSW 35 54 19 29 1015.2 1015.1 0.2
30/04:00pm 13.7 7.8 7.7 67 3.0 WSW 28 44 15 24 1015.2 1015.1 0.2
30/03:30pm 13.5 6.8 7.5 67 3.0 W 32 52 17 28 1014.8 1014.7 0.2
30/03:00pm 13.7 7.3 8.5 71 2.7 W 32 59 17 32 1014.4 1014.2 0.2
30/02:30pm 12.5 5.8 9.5 82 1.6 WSW 35 57 19 31 1014.2 1014.0 0.2
30/02:02pm 11.3 3.5 9.7 90 0.8 WSW 41 61 22 33 1014.0 1013.8 0.2
30/02:00pm 11.4 3.6 9.8 90 0.8 WSW 41 57 22 31 1014.0 1013.8 0.2
30/01:30pm 12.3 7.5 11.8 97 0.3 W 28 48 15 26 1013.6 1013.4 0.2
30/01:00pm 13.7 6.5 10.5 81 1.7 W 39 59 21 32 1013.1 1013.0 0.0
30/12:30pm 14.9 7.4 10.7 76 2.3 W 41 65 22 35 1012.8 1012.7 0.0
30/12:00pm 14.6 7.3 10.2 75 2.3 W 39 61 21 33 1012.8 1012.7 0.0
30/11:30am 14.9 7.7 10.5 75 2.4 W 39 69 21 37 1012.6 1012.5 0.0
30/11:00am 15.0 8.6 10.8 76 2.3 W 35 54 19 29 1012.1 1012.0 0.0
30/10:30am 14.8 8.4 10.6 76 2.3 W 35 61 19 33 1012.2 1012.1 0.0
30/10:00am 14.7 6.9 9.9 73 2.5 WNW 41 69 22 37 1011.9 1011.7 0.0
30/09:30am 14.8 7.7 9.6 71 2.7 W 37 61 20 33 1011.7 1011.5 0.0
30/09:00am 14.6 7.9 9.6 72 2.6 WNW 35 56 19 30 1011.7 1011.5 0.2
30/08:30am 14.7 7.6 9.5 71 2.7 WNW 37 61 20 33 1011.7 1011.5 0.2
30/08:00am 14.3 7.5 9.3 72 2.6 WNW 35 54 19 29 1011.1 1010.9 0.2
30/07:33am 13.4 7.2 9.3 76 2.1 NW 32 50 17 27 1011.0 1010.8 0.2
30/07:30am 13.3 7.5 9.4 77 2.0 WNW 30 46 16 25 1010.9 1010.7 0.2
30/07:00am 12.9 6.7 9.2 78 1.9 NW 32 54 17 29 1010.2 1010.1 0.2
30/06:38am 12.6 6.2 8.7 77 2.0 NW 32 50 17 27 1010.2 1010.1 0.2
30/06:30am 12.6 6.6 8.5 76 2.1 NW 30 41 16 22 1010.2 1010.1 0.2
30/06:09am 13.1 6.4 7.5 69 2.8 NW 32 54 17 29 1010.0 1009.9 0.2
30/06:00am 12.8 6.5 7.3 69 2.7 NW 30 43 16 23 1010.0 1009.9 0.2
30/05:41am 12.7 6.7 7.2 69 2.7 NW 28 46 15 25 1009.7 1009.6 0.2
30/05:30am 12.2 7.1 7.5 73 2.3 NW 24 39 13 21 1009.6 1009.4 0.2
30/05:00am 11.7 7.3 9.1 84 1.3 NNW 22 37 12 20 1009.5 1009.3 0.2
30/04:30am 11.3 7.0 10.7 96 0.3 NNW 24 41 13 22 1009.4 1009.2 0.2
30/04:00am 11.4 7.7 11.4 100 0.0 NNW 22 33 12 18 1009.4 1009.2 0.2
30/03:30am 11.1 7.6 10.8 98 0.2 NNW 20 32 11 17 1009.4 1009.2 0.2
30/03:00am 11.0 7.5 10.2 95 0.4 NNW 19 28 10 15 1009.8 1009.7 0.2
30/02:30am 11.2 8.0 11.2 100 0.0 NNW 19 26 10 14 1010.2 1010.1 0.2
30/02:00am 10.7 8.5 10.7 100 0.0 NNW 13 17 7 9 1010.8 1010.6 0.2
30/01:30am 11.0 8.9 11.0 100 0.0 NNW 13 19 7 10 1011.3 1011.1 0.2
30/01:00am 10.9 8.7 10.9 100 0.0 NNW 13 17 7 9 1011.8 1011.6 0.2
30/12:30am 10.9 9.1 10.9 100 0.0 NNW 11 13 6 7 1012.2 1012.1 0.2
30/12:00am 11.3 10.0 11.3 100 0.0 NW 9 13 5 7 1012.7 1012.6 0.2
 
Date/Time
CST
Tmp

°C
App
Tmp
°C
Dew
Point
°C
Rel
Hum
%
Delta-T

°C
Wind Press
QNH
hPa
Press
MSL
hPa
Rain
since
9 am
mm
Dir
 
Spd
km/h
Gust
km/h
Spd
kts
Gust
kts
29/11:30pm 11.8 10.7 11.8 100 0.0 WNW 9 15 5 8 1013.2 1013.1 0.2
29/11:00pm 11.6 10.4 11.6 100 0.0 WNW 9 15 5 8 1013.6 1013.4 0.2
29/10:30pm 11.5 9.9 11.5 100 0.0 W 11 15 6 8 1013.6 1013.4 0.2
29/10:00pm 11.1 9.4 11.1 100 0.0 W 11 15 6 8 1013.8 1013.6 0.2
29/09:30pm 10.9 8.7 10.9 100 0.0 W 13 20 7 11 1013.7 1013.5 0.2
29/09:00pm 10.7 8.4 10.4 98 0.2 W 13 19 7 10 1013.5 1013.3 0.2
29/08:30pm 11.0 8.2 9.9 93 0.6 W 15 24 8 13 1013.5 1013.3 0.2
29/08:00pm 11.8 8.1 9.5 86 1.2 W 19 24 10 13 1013.1 1013.0 0.2
29/07:30pm 13.2 9.7 8.9 75 2.2 WNW 17 22 9 12 1012.7 1012.6 0.2
29/07:00pm 13.8 9.8 8.4 70 2.8 WNW 19 30 10 16 1012.5 1012.4 0.2
29/06:30pm 13.9 10.3 8.3 69 2.9 WNW 17 22 9 12 1012.2 1012.1 0.2
29/06:00pm 14.6 11.4 8.5 67 3.1 WNW 15 20 8 11 1012.0 1011.8 0.2
29/05:30pm 15.3 11.4 8.5 64 3.5 WNW 19 32 10 17 1012.1 1012.0 0.2
29/05:00pm 15.6 11.5 8.8 64 3.5 WNW 20 32 11 17 1012.0 1011.8 0.2
29/04:30pm 16.0 11.7 9.2 64 3.6 WNW 22 35 12 19 1011.9 1011.7 0.2
29/04:00pm 16.0 11.3 9.2 64 3.6 WNW 24 37 13 20 1012.0 1011.8 0.2
29/03:30pm 15.4 10.7 9.3 67 3.2 WNW 24 39 13 21 1011.9 1011.7 0.2
29/03:00pm 16.2 12.0 9.8 66 3.4 WNW 22 39 12 21 1012.0 1011.8 0.2
29/02:30pm 16.9 12.4 10.1 64 3.7 WNW 24 35 13 19 1012.2 1012.1 0.2
29/02:00pm 16.9 13.0 9.3 61 4.0 NW 20 32 11 17 1012.4 1012.3 0.2
29/01:30pm 16.7 12.8 9.6 63 3.8 WNW 20 37 11 20 1012.7 1012.6 0.2
29/01:00pm 16.6 12.0 9.5 63 3.8 WNW 24 39 13 21 1013.0 1012.9 0.2
29/12:30pm 16.1 11.9 9.8 66 3.4 WNW 22 32 12 17 1013.4 1013.2 0.2
29/12:00pm 16.2 12.5 10.1 67 3.3 WNW 20 33 11 18 1013.6 1013.4 0.0
29/11:30am 15.5 11.1 10.3 71 2.8 WNW 24 37 13 20 1013.9 1013.7 0.0
29/11:00am 16.4 13.0 11.1 71 2.9 NW 20 32 11 17 1014.3 1014.1 0.0
29/10:30am 15.0 10.5 10.0 72 2.7 WNW 24 37 13 20 1014.3 1014.1 0.0
29/10:00am 14.4 10.8 10.4 77 2.1 WNW 20 32 11 17 1014.5 1014.4 0.0
29/09:30am 13.4 9.8 10.4 82 1.6 WNW 20 30 11 16 1014.7 1014.6 0.0
29/09:00am 13.1 10.5 13.1 100 0.0 NW 19 32 10 17 1014.5 1014.4 0.0
29/08:30am 11.5 9.1 11.5 100 0.0 WNW 15 22 8 12 1014.3 1014.1 0.0
29/08:00am 11.4 8.2 11.4 100 0.0 W 19 32 10 17 1014.0 1013.8 0.0
29/07:30am 11.8 9.5 11.8 100 0.0 W 15 28 8 15 1013.6 1013.4 0.0
29/07:00am 11.4 9.0 11.4 100 0.0 WNW 15 22 8 12 1013.6 1013.4 0.0
29/06:30am 11.1 7.9 11.1 100 0.0 WNW 19 30 10 16 1013.2 1013.1 0.0
29/06:00am 10.9 7.6 10.9 100 0.0 W 19 28 10 15 1013.0 1012.9 0.0
29/05:30am 10.8 7.3 10.8 100 0.0 W 20 32 11 17 1012.8 1012.7 0.0
29/05:00am 10.8 6.9 10.8 100 0.0 WSW 22 35 12 19 1012.3 1012.2 0.0
29/04:30am 11.2 7.8 11.2 100 0.0 WNW 20 35 11 19 1012.3 1012.2 0.0
29/04:00am 11.3 7.5 11.3 100 0.0 W 22 35 12 19 1012.1 1012.0 0.0
29/03:30am 11.3 6.7 11.0 98 0.2 W 26 41 14 22 1011.9 1011.7 0.0
29/03:00am 11.2 6.3 11.2 100 0.0 W 28 46 15 25 1011.9 1011.7 0.0
29/02:30am 11.1 6.9 11.1 100 0.0 W 24 37 13 20 1011.9 1011.7 0.0
29/02:00am 11.1 6.5 11.1 100 0.0 W 26 44 14 24 1011.9 1011.7 0.0
29/01:30am 11.3 6.3 10.8 97 0.3 W 28 41 15 22 1012.0 1011.8 0.0
29/01:18am 11.3 6.2 10.5 95 0.4 W 28 46 15 25 1012.1 1012.0 0.0
29/01:00am 11.3 6.9 10.4 94 0.5 W 24 43 13 23 1012.2 1012.1 0.0
29/12:31am 11.4 6.2 10.1 92 0.7 W 28 46 15 25 1012.4 1012.3 0.0
29/12:30am 11.4 6.1 10.0 91 0.7 W 28 43 15 23 1012.4 1012.3 0.0
29/12:12am 11.5 6.2 9.9 90 0.8 W 28 46 15 25 1012.4 1012.3 0.0
29/12:00am 11.6 5.9 9.9 89 0.9 W 30 46 16 25 1012.3 1012.2 0.0
 
Date/Time
CST
Tmp

°C
App
Tmp
°C
Dew
Point
°C
Rel
Hum
%
Delta-T

°C
Wind Press
QNH
hPa
Press
MSL
hPa
Rain
since
9 am
mm
Dir
 
Spd
km/h
Gust
km/h
Spd
kts
Gust
kts
28/11:30pm 11.9 5.8 9.6 86 1.2 W 32 50 17 27 1012.5 1012.4 0.0
28/11:03pm 11.8 5.6 9.4 85 1.2 W 32 50 17 27 1012.5 1012.4 0.0
28/11:00pm 11.8 5.6 9.4 85 1.2 W 32 46 17 25 1012.6 1012.5 0.0
28/10:30pm 11.9 5.7 9.5 85 1.2 WNW 32 50 17 27 1012.8 1012.7 0.0
28/10:27pm 11.9 6.1 9.6 86 1.2 WNW 30 50 16 27 1012.8 1012.7 0.0
28/10:00pm 11.7 6.9 10.3 91 0.7 WNW 26 41 14 22 1012.8 1012.7 0.0
28/09:30pm 11.7 7.4 10.6 93 0.6 WNW 24 37 13 20 1012.5 1012.4 0.0
28/09:00pm 11.8 7.5 10.9 94 0.5 W 24 39 13 21 1012.4 1012.3 0.0
28/08:30pm 12.1 6.2 10.5 90 0.8 W 32 54 17 29 1012.2 1012.1 0.0
28/08:00pm 11.9 6.5 11.0 94 0.5 W 30 48 16 26 1011.7 1011.5 0.0
28/07:30pm 11.9 6.9 11.1 95 0.4 W 28 46 15 25 1011.0 1010.8 0.0
28/07:02pm 11.9 6.9 11.1 95 0.4 W 28 46 15 25 1010.3 1010.2 0.0
28/07:00pm 12.0 7.4 11.2 95 0.4 W 26 46 14 25 1010.2 1010.1 0.0
28/06:30pm 12.3 6.9 10.9 91 0.7 W 30 46 16 25 1009.5 1009.3 0.0
28/06:04pm 12.6 7.0 10.3 86 1.2 W 30 48 16 26 1009.3 1009.1 0.0
28/06:00pm 12.7 6.7 10.2 85 1.3 W 32 48 17 26 1009.1 1008.9 0.0
28/05:30pm 13.5 8.3 10.1 80 1.8 WSW 28 46 15 25 1009.1 1008.9 0.0
28/05:27pm 13.5 8.2 9.7 78 2.0 WSW 28 46 15 25 1009.0 1008.8 0.0
28/05:00pm 14.1 9.2 9.9 76 2.2 WSW 26 39 14 21 1008.8 1008.6 0.0
28/04:30pm 14.5 8.7 9.3 71 2.7 WSW 30 54 16 29 1008.3 1008.1 0.0
28/04:27pm 14.6 8.7 9.2 70 2.8 WSW 30 54 16 29 1008.2 1008.0 0.0
28/04:00pm 15.5 11.3 9.8 69 3.0 WSW 22 39 12 21 1008.0 1007.8 0.0
28/03:30pm 17.4 12.5 9.8 61 4.1 WSW 26 41 14 22 1007.4 1007.3 0.0
28/03:00pm 19.5 14.8 10.8 57 4.8 W 26 41 14 22 1006.8 1006.6 0.0
28/02:59pm 19.2 14.4 10.2 56 4.9 WSW 26 41 14 22 1006.8 1006.6 0.0
28/02:30pm 24.2 18.1 6.5 32 9.3 WNW 28 46 15 25 1006.4 1006.2 0.0
28/02:00pm 24.3 16.9 4.1 27 10.2 NW 32 65 17 35 1006.6 1006.4 0.0
28/01:30pm 24.5 17.7 5.3 29 9.9 WNW 30 54 16 29 1006.9 1006.7 0.0
28/01:00pm 25.4 18.3 5.6 28 10.3 NW 32 56 17 30 1006.9 1006.7 0.0
28/12:30pm 24.5 16.8 5.3 29 9.9 NW 35 57 19 31 1007.2 1007.0 0.0
28/12:00pm 23.8 17.6 6.1 32 9.2 NNW 28 46 15 25 1007.7 1007.5 0.0
28/11:30am 22.8 15.7 6.6 35 8.5 NNW 33 63 18 34 1007.7 1007.5 0.0
28/11:00am 22.1 13.8 5.9 35 8.3 NNW 39 61 21 33 1007.7 1007.5 0.0
28/10:30am 22.3 13.7 4.8 32 8.8 NNW 39 78 21 42 1008.0 1007.8 0.0
28/10:00am 23.9 14.5 5.3 30 9.5 NNW 44 82 24 44 1008.0 1007.8 0.0
28/09:32am 23.2 13.7 3.7 28 9.7 NNW 43 87 23 47 1007.7 1007.5 0.0
28/09:30am 23.2 14.3 5.1 31 9.2 NNW 41 69 22 37 1007.7 1007.5 0.0
28/09:00am 22.9 13.8 3.9 29 9.5 NNW 41 67 22 36 1007.8 1007.6 0.0
28/08:30am 22.3 14.3 3.9 30 9.1 NNW 35 61 19 33 1007.7 1007.5 0.0
28/08:00am 22.0 13.1 3.2 29 9.2 N 39 72 21 39 1006.9 1006.7 0.0
28/07:30am 21.6 13.4 2.8 29 9.1 N 35 65 19 35 1006.0 1005.8 0.0
28/07:00am 21.1 12.2 2.9 30 8.8 N 39 61 21 33 1006.3 1006.1 0.0
28/06:30am 21.0 12.1 2.8 30 8.8 N 39 65 21 35 1006.4 1006.2 0.0
28/06:00am 20.8 13.0 2.6 30 8.7 N 33 63 18 34 1006.6 1006.4 0.0
28/05:30am 21.2 13.3 2.5 29 9.0 N 33 57 18 31 1006.5 1006.3 0.0
28/05:00am 21.1 13.0 3.3 31 8.6 N 35 69 19 37 1006.9 1006.7 0.0
28/04:30am 21.4 13.0 3.6 31 8.7 N 37 72 20 39 1006.9 1006.7 0.0
28/04:00am 21.1 13.7 4.2 33 8.3 N 32 56 17 30 1007.1 1006.9 0.0
28/03:30am 21.2 13.7 4.3 33 8.4 N 33 56 18 30 1008.1 1007.9 0.0

Latest Capital City Observations: Canberra | Sydney | Melbourne | Brisbane | Adelaide | Perth | Hobart | Darwin

Other Formats:

Comma delimited format used in spreadsheet applications
http://www.bom.gov.au/fwo/IDS60901/IDS60901.94683.axf

JavaScript Object Notation format (JSON) in row-major order
http://www.bom.gov.au/fwo/IDS60901/IDS60901.94683.json